Time;durP1;ratioP1;P1;durP2;ratioP2;P2;SDS_P1;SDS_P2;PMS_P1;PMS_P2;Temp;Humidity;BMP_temperature;BMP_pressure;BME280_temperature;BME280_humidity;BME280_pressure;Samples;Min_cycle;Max_cycle;Signal;HPM_P1;HPM_P2
2022/07/19 00:00:33;;;;;;;5.28;2.92;;;21.10;91.80;;;;;;5069037;28;20058;-67
2022/07/19 00:03:00;;;;;;;6.55;2.88;;;21.00;91.90;;;;;;5063988;28;20077;-69
2022/07/19 00:05:28;;;;;;;5.60;2.95;;;21.00;92.00;;;;;;5061557;28;20414;-68
2022/07/19 00:07:55;;;;;;;6.35;2.80;;;20.90;92.30;;;;;;5065884;28;20075;-69
2022/07/19 00:10:23;;;;;;;7.00;2.83;;;20.90;92.50;;;;;;5058460;28;20076;-68
2022/07/19 00:12:50;;;;;;;5.13;2.90;;;20.80;92.70;;;;;;5066996;28;20076;-67
2022/07/19 00:15:18;;;;;;;5.93;2.85;;;20.80;92.80;;;;;;5069380;28;20048;-68
2022/07/19 00:17:48;;;;;;;5.88;3.25;;;20.80;93.00;;;;;;5068072;28;20055;-68
2022/07/19 00:20:18;;;;;;;5.40;2.72;;;20.70;93.20;;;;;;5065064;28;20121;-68
2022/07/19 00:22:45;;;;;;;5.75;2.83;;;20.70;93.50;;;;;;5068126;28;20048;-70
2022/07/19 00:25:12;;;;;;;5.38;2.58;;;20.60;93.70;;;;;;5064899;28;20053;-68
2022/07/19 00:27:41;;;;;;;6.78;3.25;;;20.60;93.80;;;;;;5068012;28;20531;-68
2022/07/19 00:30:10;;;;;;;7.63;2.83;;;20.60;94.00;;;;;;5067708;28;20048;-67
2022/07/19 00:32:37;;;;;;;4.75;3.05;;;20.60;94.00;;;;;;5055143;28;20040;-68
2022/07/19 00:35:05;;;;;;;6.75;2.83;;;20.60;94.10;;;;;;5061220;28;20040;-67
2022/07/19 00:37:32;;;;;;;5.38;2.88;;;20.50;94.10;;;;;;5051281;28;20098;-68
2022/07/19 00:40:00;;;;;;;7.18;3.50;;;20.50;94.20;;;;;;5058265;28;20512;-67
2022/07/19 00:42:29;;;;;;;6.95;3.40;;;20.50;94.10;;;;;;5054515;28;20514;-69
2022/07/19 00:44:56;;;;;;;5.35;3.17;;;20.50;94.20;;;;;;5057169;28;20043;-68
2022/07/19 00:47:24;;;;;;;5.78;3.10;;;20.50;94.20;;;;;;5063044;28;20040;-68
2022/07/19 00:49:51;;;;;;;6.03;3.20;;;20.40;94.30;;;;;;5060038;28;20048;-68
2022/07/19 00:52:21;;;;;;;6.22;2.67;;;20.40;94.40;;;;;;5063611;28;20071;-67
2022/07/19 00:54:51;;;;;;;5.95;2.83;;;20.40;94.60;;;;;;5066704;28;20045;-67
2022/07/19 00:57:19;;;;;;;7.38;2.95;;;20.40;94.70;;;;;;5065390;28;20484;-67
2022/07/19 00:59:49;;;;;;;6.45;3.20;;;20.40;94.90;;;;;;5058497;28;20543;-68
2022/07/19 01:02:17;;;;;;;9.10;3.45;;;20.40;95.00;;;;;;5061228;28;20055;-67
2022/07/19 01:04:45;;;;;;;6.82;2.60;;;20.30;95.10;;;;;;5053849;28;20478;-68
2022/07/19 01:07:13;;;;;;;5.40;2.85;;;20.30;95.20;;;;;;5067668;28;20132;-67
2022/07/19 01:09:41;;;;;;;6.10;3.08;;;20.30;95.30;;;;;;5055733;28;20435;-68
2022/07/19 01:12:10;;;;;;;5.22;2.83;;;20.30;95.40;;;;;;5061506;28;20467;-67
2022/07/19 01:14:37;;;;;;;6.82;2.80;;;20.30;95.50;;;;;;5062608;28;20049;-67
2022/07/19 01:17:05;;;;;;;7.10;2.95;;;20.20;95.70;;;;;;5058950;28;20477;-67
2022/07/19 01:19:32;;;;;;;5.30;3.03;;;20.20;96.00;;;;;;5055466;28;20516;-68
2022/07/19 01:22:00;;;;;;;5.45;2.97;;;20.20;96.30;;;;;;5058259;28;20086;-67
2022/07/19 01:24:28;;;;;;;5.15;3.00;;;20.10;96.90;;;;;;5058018;28;20445;-67
2022/07/19 01:26:55;;;;;;;5.57;3.00;;;20.10;97.60;;;;;;5057889;28;20041;-68
2022/07/19 01:29:22;;;;;;;5.70;3.05;;;20.00;98.10;;;;;;5060451;28;20117;-68
2022/07/19 01:31:50;;;;;;;7.28;2.97;;;19.90;98.60;;;;;;5057428;28;20461;-67
2022/07/19 01:34:18;;;;;;;6.43;2.78;;;19.90;99.20;;;;;;5047364;28;20049;-68
2022/07/19 01:36:45;;;;;;;7.85;2.88;;;19.80;99.70;;;;;;5058675;28;20117;-67
2022/07/19 01:39:12;;;;;;;4.47;2.75;;;19.80;99.90;;;;;;5053647;28;20106;-67
2022/07/19 01:41:40;;;;;;;5.10;3.08;;;19.70;99.90;;;;;;5057032;28;20403;-67
2022/07/19 01:44:07;;;;;;;5.82;2.72;;;19.70;99.90;;;;;;5069075;28;20054;-67
2022/07/19 01:46:35;;;;;;;4.55;2.95;;;19.60;99.90;;;;;;5069082;28;20090;-67
2022/07/19 01:49:04;;;;;;;8.23;3.30;;;19.60;99.90;;;;;;5067770;28;20045;-67
2022/07/19 01:51:31;;;;;;;5.93;3.17;;;19.60;99.90;;;;;;5048773;28;20048;-67
2022/07/19 01:53:59;;;;;;;5.88;2.72;;;19.50;99.90;;;;;;5060474;28;20360;-67
2022/07/19 01:56:28;;;;;;;5.65;2.88;;;19.50;99.90;;;;;;5053949;28;20510;-68
2022/07/19 01:58:55;;;;;;;8.10;3.20;;;19.40;99.90;;;;;;5052449;28;20128;-68
2022/07/19 02:01:23;;;;;;;5.53;2.60;;;19.40;99.90;;;;;;5053625;28;20124;-67
2022/07/19 02:03:50;;;;;;;4.75;2.80;;;19.40;99.90;;;;;;5059693;28;20089;-67
2022/07/19 02:06:18;;;;;;;7.07;3.25;;;19.40;99.90;;;;;;5057952;28;20447;-67
2022/07/19 02:08:46;;;;;;;7.30;3.17;;;19.40;99.90;;;;;;5066944;28;20056;-67
2022/07/19 02:13:59;;;;;;;8.00;3.45;;;19.30;99.90;;;;;;5058869;28;20048;-68
2022/07/19 02:16:27;;;;;;;6.90;2.83;;;19.30;99.90;;;;;;5067187;28;20124;-67
2022/07/19 02:18:55;;;;;;;5.88;2.70;;;19.20;99.90;;;;;;5068128;28;20075;-67
2022/07/19 02:21:22;;;;;;;4.78;2.65;;;19.20;99.90;;;;;;5066212;28;20045;-67
2022/07/19 02:23:50;;;;;;;4.90;2.72;;;19.20;99.90;;;;;;5078590;28;20511;-67
2022/07/19 02:26:17;;;;;;;6.70;3.10;;;19.20;99.90;;;;;;5059543;28;20047;-67
2022/07/19 02:28:44;;;;;;;5.88;3.30;;;19.10;99.90;;;;;;5066425;28;20127;-67
2022/07/19 02:31:12;;;;;;;6.82;3.20;;;19.10;99.90;;;;;;5060348;28;20041;-67
2022/07/19 02:33:39;;;;;;;4.63;2.70;;;19.10;99.90;;;;;;5054512;28;20045;-67
2022/07/19 02:36:07;;;;;;;5.10;2.53;;;19.00;99.90;;;;;;5059779;28;20559;-66
2022/07/19 02:38:34;;;;;;;4.90;3.10;;;19.00;99.90;;;;;;5064897;28;20120;-67
2022/07/19 02:41:01;;;;;;;5.18;2.97;;;19.00;99.90;;;;;;5057339;28;20043;-67
2022/07/19 02:43:29;;;;;;;6.45;3.13;;;19.00;99.90;;;;;;5067925;28;20118;-67
2022/07/19 02:45:56;;;;;;;6.22;2.85;;;18.90;99.90;;;;;;5065766;28;20040;-67
2022/07/19 02:48:24;;;;;;;6.88;2.72;;;19.00;99.90;;;;;;5053917;28;20105;-67
2022/07/19 02:50:51;;;;;;;7.13;3.25;;;19.00;99.90;;;;;;5054388;28;20080;-67
2022/07/19 02:53:19;;;;;;;5.97;3.05;;;19.00;99.90;;;;;;5066504;28;20071;-67
2022/07/19 02:55:46;;;;;;;7.22;2.80;;;19.00;99.90;;;;;;5067483;28;20040;-67
2022/07/19 02:58:14;;;;;;;4.93;2.60;;;19.00;99.90;;;;;;5054585;28;20457;-67
2022/07/19 03:00:41;;;;;;;5.18;2.95;;;18.90;99.90;;;;;;5066826;28;20120;-67
2022/07/19 03:05:56;;;;;;;5.32;3.10;;;18.90;99.90;;;;;;5052304;28;20424;-67
2022/07/19 03:08:23;;;;;;;5.68;2.97;;;18.90;99.90;;;;;;5065129;28;20090;-67
2022/07/19 03:10:51;;;;;;;6.20;3.05;;;18.90;99.90;;;;;;5067241;28;20083;-68
2022/07/19 03:13:18;;;;;;;5.43;3.10;;;18.90;99.90;;;;;;5068232;28;20195;-68
2022/07/19 03:15:45;;;;;;;7.10;2.78;;;18.90;99.90;;;;;;5061967;28;20052;-67
2022/07/19 03:18:13;;;;;;;5.10;3.00;;;18.90;99.90;;;;;;5067770;28;20067;-68
2022/07/19 03:20:40;;;;;;;7.25;3.03;;;18.90;99.90;;;;;;5067263;28;20128;-68
2022/07/19 03:23:07;;;;;;;5.82;3.30;;;18.90;99.90;;;;;;5053785;28;20553;-67
2022/07/19 03:25:35;;;;;;;5.40;2.95;;;18.90;99.90;;;;;;5065731;28;20407;-67
2022/07/19 03:28:02;;;;;;;5.70;3.20;;;18.90;99.90;;;;;;5067680;28;20040;-68
2022/07/19 03:30:31;;;;;;;5.30;2.95;;;18.90;99.90;;;;;;5058030;28;20045;-68
2022/07/19 03:32:59;;;;;;;6.88;3.33;;;18.90;99.90;;;;;;5056134;28;20037;-68
2022/07/19 03:35:26;;;;;;;6.65;3.47;;;18.80;99.90;;;;;;5062898;28;20070;-68
2022/07/19 03:37:54;;;;;;;6.35;3.47;;;18.90;99.90;;;;;;5069279;28;20040;-69
2022/07/19 03:40:21;;;;;;;6.72;3.15;;;18.90;99.90;;;;;;5061994;28;20124;-68
2022/07/19 03:42:48;;;;;;;8.32;3.38;;;18.90;99.90;;;;;;5071303;28;20044;-68
2022/07/19 03:45:16;;;;;;;7.78;4.60;;;18.90;99.90;;;;;;5069962;28;20048;-67
2022/07/19 03:47:43;;;;;;;5.55;3.63;;;18.90;99.90;;;;;;5068718;28;20048;-68
2022/07/19 03:50:10;;;;;;;6.72;3.97;;;18.90;99.90;;;;;;5071197;28;20139;-68
2022/07/19 03:52:37;;;;;;;8.15;3.65;;;18.90;99.90;;;;;;5058745;28;20053;-68
2022/07/19 03:55:06;;;;;;;6.57;3.53;;;19.00;99.90;;;;;;5062737;28;20055;-67
2022/07/19 03:57:33;;;;;;;7.88;4.00;;;19.00;99.90;;;;;;5068454;28;20066;-69
2022/07/19 04:00:01;;;;;;;6.40;4.22;;;19.00;99.90;;;;;;5071330;28;20048;-68
2022/07/19 04:02:38;;;;;;;6.65;4.10;;;19.00;99.90;;;;;;5070918;28;20486;-69
2022/07/19 04:05:06;;;;;;;7.68;4.55;;;19.00;99.90;;;;;;5059966;28;20040;-69
2022/07/19 04:07:33;;;;;;;11.23;6.70;;;19.10;99.90;;;;;;5061311;28;20471;-68
2022/07/19 04:10:01;;;;;;;7.80;5.10;;;19.10;99.90;;;;;;5063875;28;20079;-70
2022/07/19 04:12:28;;;;;;;8.35;4.68;;;19.20;99.90;;;;;;5069050;28;20041;-68
2022/07/19 04:14:56;;;;;;;8.35;5.13;;;19.20;99.90;;;;;;5069898;28;20071;-68
2022/07/19 04:17:23;;;;;;;9.00;4.40;;;19.30;99.90;;;;;;5068335;28;20044;-68
2022/07/19 04:19:51;;;;;;;9.57;4.40;;;19.30;99.90;;;;;;5060998;28;20032;-67
2022/07/19 04:22:18;;;;;;;9.68;5.03;;;19.30;99.90;;;;;;5062722;28;20049;-67
2022/07/19 04:24:45;;;;;;;13.95;6.22;;;19.30;99.90;;;;;;5049690;28;20076;-68
2022/07/19 04:27:13;;;;;;;8.23;4.80;;;19.30;99.90;;;;;;5056744;28;20040;-67
2022/07/19 04:29:40;;;;;;;7.57;3.83;;;19.30;99.90;;;;;;5069328;28;20055;-67
2022/07/19 04:32:08;;;;;;;6.47;3.58;;;19.40;99.90;;;;;;5057123;28;20049;-67
2022/07/19 04:34:35;;;;;;;6.57;3.28;;;19.40;99.90;;;;;;5069459;28;20064;-68
2022/07/19 04:37:02;;;;;;;6.45;3.20;;;19.40;99.90;;;;;;5055431;28;20052;-68
2022/07/19 04:39:30;;;;;;;8.30;3.78;;;19.40;99.90;;;;;;5065363;28;20040;-68
2022/07/19 04:41:57;;;;;;;7.63;3.20;;;19.50;99.90;;;;;;5056649;28;20048;-68
2022/07/19 04:44:24;;;;;;;6.57;3.42;;;19.60;99.90;;;;;;5065989;28;20044;-68
2022/07/19 04:46:52;;;;;;;6.13;3.60;;;19.60;99.90;;;;;;5069198;28;20123;-68
2022/07/19 04:49:19;;;;;;;8.88;3.67;;;19.60;99.90;;;;;;5065588;28;20049;-67
2022/07/19 04:51:46;;;;;;;7.20;3.83;;;19.60;99.90;;;;;;5056655;28;20160;-68
2022/07/19 04:54:14;;;;;;;6.50;3.83;;;19.70;99.90;;;;;;5050301;28;20084;-68
2022/07/19 04:56:41;;;;;;;6.40;3.70;;;19.70;99.90;;;;;;5058089;28;20563;-68
2022/07/19 04:59:09;;;;;;;6.75;4.22;;;19.70;99.90;;;;;;5051559;28;20047;-68
2022/07/19 05:01:36;;;;;;;8.35;4.10;;;19.80;99.90;;;;;;5052724;28;20043;-69
2022/07/19 05:04:05;;;;;;;7.53;4.60;;;19.80;99.90;;;;;;5048065;28;20033;-69
2022/07/19 05:06:32;;;;;;;9.48;5.22;;;19.90;99.90;;;;;;5053781;28;20041;-69
2022/07/19 05:09:00;;;;;;;15.07;7.50;;;19.90;99.90;;;;;;5068223;28;20131;-68
2022/07/19 05:11:28;;;;;;;13.48;6.50;;;20.00;99.90;;;;;;5057782;28;20052;-69
2022/07/19 05:13:55;;;;;;;10.13;5.15;;;20.10;99.90;;;;;;5068353;28;20079;-68
2022/07/19 05:16:22;;;;;;;11.55;3.80;;;20.20;99.90;;;;;;5061777;28;20128;-69
2022/07/19 05:18:50;;;;;;;9.27;3.55;;;20.30;99.90;;;;;;5061178;28;20032;-67
2022/07/19 05:21:17;;;;;;;6.60;3.38;;;20.40;99.90;;;;;;5057528;28;20063;-68
2022/07/19 05:23:44;;;;;;;8.02;3.70;;;20.40;99.90;;;;;;5060689;28;20045;-67
2022/07/19 05:26:12;;;;;;;8.55;3.38;;;20.50;99.90;;;;;;5067106;28;20376;-68
2022/07/19 05:28:39;;;;;;;7.13;3.40;;;20.50;99.90;;;;;;5067024;28;20483;-67
2022/07/19 05:31:06;;;;;;;7.07;3.45;;;20.60;99.90;;;;;;5060067;28;20131;-67
2022/07/19 05:33:34;;;;;;;8.93;4.25;;;20.70;99.90;;;;;;5031636;28;20380;-67
2022/07/19 05:36:01;;;;;;;7.22;3.25;;;20.70;99.90;;;;;;5047586;28;20083;-68
2022/07/19 05:38:34;;;;;;;5.43;3.50;;;20.80;99.90;;;;;;5053502;28;20120;-68
2022/07/19 05:41:02;;;;;;;5.63;3.30;;;20.90;99.90;;;;;;5058617;28;20041;-67
2022/07/19 05:43:29;;;;;;;8.63;3.35;;;21.00;99.90;;;;;;5052513;28;20040;-68
2022/07/19 05:45:56;;;;;;;6.82;3.38;;;21.00;99.90;;;;;;5048806;28;20115;-69
2022/07/19 05:48:24;;;;;;;7.40;3.30;;;21.10;99.90;;;;;;5050350;28;20111;-68
2022/07/19 05:50:51;;;;;;;7.60;4.03;;;21.20;99.90;;;;;;5047353;28;20095;-68
2022/07/19 05:53:19;;;;;;;25.23;16.38;;;21.40;99.90;;;;;;5056575;28;20048;-68
2022/07/19 05:55:47;;;;;;;11.02;5.72;;;21.40;99.90;;;;;;5063496;28;20052;-68
2022/07/19 05:58:17;;;;;;;7.95;3.58;;;21.50;99.90;;;;;;5063080;28;20394;-68
2022/07/19 06:03:33;;;;;;;8.70;3.30;;;21.70;99.90;;;;;;5058806;28;20051;-67
2022/07/19 06:06:01;;;;;;;4.43;2.83;;;21.70;99.90;;;;;;5060950;28;20051;-67
2022/07/19 06:08:28;;;;;;;7.22;3.17;;;21.80;99.90;;;;;;5065138;28;20040;-67
2022/07/19 06:10:55;;;;;;;7.35;3.25;;;21.90;99.90;;;;;;5062400;28;20386;-67
2022/07/19 06:13:23;;;;;;;7.13;3.15;;;22.00;99.90;;;;;;5059494;28;20049;-67
2022/07/19 06:15:50;;;;;;;8.20;3.35;;;22.10;99.90;;;;;;5059856;28;20538;-67
2022/07/19 06:18:18;;;;;;;7.45;3.22;;;22.20;99.90;;;;;;5052649;28;20120;-67
2022/07/19 06:20:46;;;;;;;10.55;4.30;;;22.30;99.90;;;;;;5049699;28;20530;-68
2022/07/19 06:23:14;;;;;;;8.43;3.55;;;22.40;99.90;;;;;;5051799;28;20475;-68
2022/07/19 06:25:46;;;;;;;10.00;3.60;;;22.60;99.90;;;;;;5052349;28;20061;-68
2022/07/19 06:28:13;;;;;;;7.05;3.20;;;22.60;99.90;;;;;;5054718;28;20044;-67
2022/07/19 06:30:41;;;;;;;8.75;3.50;;;22.80;99.90;;;;;;5065523;28;20040;-67
2022/07/19 06:33:08;;;;;;;9.93;3.78;;;23.00;99.90;;;;;;5055808;28;20131;-69
2022/07/19 06:35:35;;;;;;;9.93;3.58;;;23.20;99.90;;;;;;5054785;28;20045;-68
2022/07/19 06:38:03;;;;;;;6.63;3.55;;;23.30;99.90;;;;;;5053510;28;20400;-68
2022/07/19 06:40:30;;;;;;;10.38;3.40;;;23.40;99.90;;;;;;5055929;28;20064;-67
2022/07/19 06:42:57;;;;;;;10.10;3.20;;;23.50;99.90;;;;;;5063176;28;20045;-70
2022/07/19 06:45:25;;;;;;;6.25;3.45;;;23.60;99.90;;;;;;5066163;28;20040;-68
2022/07/19 06:47:52;;;;;;;8.77;3.30;;;23.80;99.90;;;;;;5064684;28;20094;-69
2022/07/19 06:50:20;;;;;;;4.85;2.78;;;23.90;99.90;;;;;;5057316;28;20146;-68
2022/07/19 06:53:07;;;;;;;7.72;2.65;;;24.00;99.80;;;;;;5064810;28;20480;-71
2022/07/19 06:55:34;;;;;;;6.10;2.60;;;24.10;99.20;;;;;;5067933;28;20068;-68
2022/07/19 06:58:02;;;;;;;4.38;2.70;;;24.20;99.10;;;;;;5056248;28;20443;-69
2022/07/19 07:00:29;;;;;;;6.68;2.70;;;24.30;98.80;;;;;;5062516;28;20045;-70
2022/07/19 07:02:56;;;;;;;6.97;2.83;;;24.50;98.40;;;;;;5059748;28;20068;-69
2022/07/19 07:05:24;;;;;;;8.10;2.90;;;24.60;98.10;;;;;;5056103;28;20501;-70
2022/07/19 07:07:53;;;;;;;12.50;3.40;;;24.70;97.70;;;;;;5070514;28;20363;-69
2022/07/19 07:10:21;;;;;;;7.72;3.03;;;24.80;97.30;;;;;;5070223;28;20418;-69
2022/07/19 07:12:49;;;;;;;7.50;3.00;;;24.90;97.00;;;;;;5062253;28;20040;-68
2022/07/19 07:15:16;;;;;;;8.85;2.72;;;25.00;96.80;;;;;;5071367;28;20089;-69
2022/07/19 07:17:44;;;;;;;4.82;2.55;;;25.10;96.70;;;;;;5056493;28;20092;-69
2022/07/19 07:20:12;;;;;;;5.07;2.83;;;25.10;96.40;;;;;;5065785;28;20052;-69
2022/07/19 07:22:40;;;;;;;8.35;2.55;;;25.20;96.20;;;;;;5064735;28;20569;-69
2022/07/19 07:25:07;;;;;;;4.78;2.38;;;25.30;95.80;;;;;;5050758;28;20068;-69
2022/07/19 07:27:35;;;;;;;5.05;2.45;;;25.50;95.70;;;;;;5065814;28;20041;-69
2022/07/19 07:30:03;;;;;;;8.35;3.35;;;25.50;95.40;;;;;;5054502;28;20068;-67
2022/07/19 07:32:31;;;;;;;5.85;2.58;;;25.70;95.20;;;;;;5052638;28;20095;-68
2022/07/19 07:34:58;;;;;;;6.35;3.00;;;25.80;95.20;;;;;;5062161;28;20049;-69
2022/07/19 07:37:26;;;;;;;5.63;2.60;;;25.90;94.90;;;;;;5052609;28;20529;-69
2022/07/19 07:39:54;;;;;;;5.07;2.50;;;26.00;94.40;;;;;;5064150;28;20079;-68
2022/07/19 07:42:22;;;;;;;7.57;2.50;;;26.10;94.20;;;;;;5048516;28;20101;-70
2022/07/19 07:44:50;;;;;;;6.70;2.40;;;26.20;93.90;;;;;;5068768;28;20051;-68
2022/07/19 07:47:17;;;;;;;7.78;3.08;;;26.40;93.50;;;;;;5056215;28;20734;-68
2022/07/19 07:49:45;;;;;;;4.25;2.10;;;26.40;92.80;;;;;;5053495;28;20058;-68
2022/07/19 07:52:13;;;;;;;6.30;2.72;;;26.60;92.50;;;;;;5050145;28;20577;-69
2022/07/19 07:54:40;;;;;;;6.13;2.70;;;26.70;91.50;;;;;;5055365;28;20067;-68
2022/07/19 07:57:27;;;;;;;4.00;2.45;;;26.80;91.10;;;;;;5050078;28;20419;-69
2022/07/19 07:59:55;;;;;;;11.48;2.72;;;27.00;91.10;;;;;;5059098;28;20036;-70
2022/07/19 08:02:22;;;;;;;6.57;2.60;;;27.10;90.50;;;;;;5052415;28;20068;-68
2022/07/19 08:04:49;;;;;;;6.22;2.50;;;27.30;90.20;;;;;;5050596;28;20601;-69
2022/07/19 08:07:17;;;;;;;6.13;2.50;;;27.30;89.50;;;;;;5056483;28;20045;-68
2022/07/19 08:09:44;;;;;;;5.80;2.10;;;27.40;89.20;;;;;;5063283;28;20562;-68
2022/07/19 08:12:12;;;;;;;5.40;2.15;;;27.50;88.90;;;;;;5062160;28;20482;-68
2022/07/19 08:14:39;;;;;;;8.32;2.40;;;27.70;88.20;;;;;;5054421;28;20705;-68
2022/07/19 08:17:07;;;;;;;3.75;1.90;;;27.80;87.60;;;;;;5056113;28;20114;-68
2022/07/19 08:19:34;;;;;;;6.78;2.30;;;27.90;86.90;;;;;;5054421;28;20487;-68
2022/07/19 08:22:01;;;;;;;4.55;2.25;;;28.00;86.00;;;;;;5057336;28;20064;-67
2022/07/19 08:24:29;;;;;;;7.38;2.33;;;28.10;85.30;;;;;;5056309;28;20075;-68
2022/07/19 08:26:56;;;;;;;3.30;1.80;;;28.20;84.70;;;;;;5065759;28;20036;-70
2022/07/19 08:29:24;;;;;;;4.70;1.90;;;28.30;83.10;;;;;;5065849;28;20737;-68
2022/07/19 08:31:51;;;;;;;5.25;2.20;;;28.40;82.60;;;;;;5064455;28;20053;-69
2022/07/19 08:34:19;;;;;;;6.47;1.85;;;28.40;81.60;;;;;;5051889;28;20056;-67
2022/07/19 08:36:46;;;;;;;3.60;2.00;;;28.50;81.20;;;;;;5061594;28;20495;-70
2022/07/19 08:39:13;;;;;;;3.60;1.90;;;28.60;80.30;;;;;;5069691;28;20549;-68
2022/07/19 08:41:44;;;;;;;4.47;2.10;;;28.60;79.60;;;;;;5060830;28;20136;-70
2022/07/19 08:44:12;;;;;;;11.75;1.85;;;28.80;79.10;;;;;;5052239;28;20131;-68
2022/07/19 08:46:41;;;;;;;5.53;2.00;;;28.80;78.50;;;;;;5068419;28;20462;-67
2022/07/19 08:49:09;;;;;;;3.13;1.80;;;29.10;78.00;;;;;;5058462;28;20052;-67
2022/07/19 08:51:37;;;;;;;5.82;2.13;;;29.20;76.90;;;;;;5058178;28;20048;-67
2022/07/19 08:54:05;;;;;;;5.70;1.80;;;29.20;76.30;;;;;;5052337;28;20047;-68
2022/07/19 08:59:21;;;;;;;3.80;2.10;;;29.20;76.40;;;;;;5060712;28;20040;-70
2022/07/19 09:01:49;;;;;;;4.32;2.00;;;29.30;75.70;;;;;;5060311;28;20486;-69
2022/07/19 09:04:19;;;;;;;6.15;3.30;;;29.30;75.30;;;;;;5056053;28;20544;-67
2022/07/19 09:06:51;;;;;;;4.10;2.50;;;29.40;74.80;;;;;;5057218;28;20040;-67
2022/07/19 09:09:27;;;;;;;7.97;2.13;;;29.50;74.70;;;;;;5057200;28;20072;-67
2022/07/19 09:11:56;;;;;;;5.97;2.38;;;29.70;74.00;;;;;;5054264;28;20045;-69
2022/07/19 09:14:25;;;;;;;6.70;1.83;;;29.80;72.10;;;;;;5056601;28;20356;-68
2022/07/19 09:16:57;;;;;;;4.60;2.28;;;29.90;72.30;;;;;;5055227;28;20125;-68
2022/07/19 09:19:25;;;;;;;6.15;1.92;;;29.90;71.50;;;;;;5062833;28;20620;-69
2022/07/19 09:22:08;;;;;;;5.70;1.85;;;30.00;71.40;;;;;;5056262;28;20474;-70
2022/07/19 09:24:39;;;;;;;6.95;1.98;;;30.20;70.60;;;;;;5050747;28;20231;-66
2022/07/19 09:27:12;;;;;;;8.40;2.80;;;30.20;70.00;;;;;;5064878;28;20040;-66
2022/07/19 09:29:42;;;;;;;6.72;2.50;;;30.40;69.50;;;;;;5067843;28;20593;-66
2022/07/19 09:32:14;;;;;;;6.57;2.50;;;30.60;69.20;;;;;;5050754;28;20079;-66
2022/07/19 09:34:50;;;;;;;6.03;2.20;;;30.60;68.60;;;;;;5054601;28;20574;-67
2022/07/19 09:37:22;;;;;;;4.47;2.30;;;30.70;68.20;;;;;;5059677;28;20767;-66
2022/07/19 09:39:51;;;;;;;8.57;2.17;;;30.80;66.60;;;;;;5063860;28;20517;-66
2022/07/19 09:42:38;;;;;;;8.15;2.15;;;31.00;66.10;;;;;;5054468;28;20132;-65
2022/07/19 09:45:11;;;;;;;5.43;2.00;;;31.10;65.70;;;;;;5067920;28;20478;-65
2022/07/19 09:47:41;;;;;;;6.97;2.25;;;31.20;65.10;;;;;;5068370;28;20072;-66
2022/07/19 09:50:12;;;;;;;7.15;2.03;;;31.20;65.40;;;;;;5063740;28;20443;-65
2022/07/19 09:52:40;;;;;;;5.40;1.90;;;31.30;65.00;;;;;;5054770;28;20068;-67
2022/07/19 09:55:15;;;;;;;5.38;2.03;;;31.50;65.10;;;;;;5063723;28;20507;-66
2022/07/19 09:57:44;;;;;;;7.10;2.50;;;31.70;64.80;;;;;;5060316;28;20434;-66
2022/07/19 10:00:14;;;;;;;4.38;2.30;;;31.80;63.90;;;;;;5060934;28;20040;-65
2022/07/19 10:02:47;;;;;;;8.65;2.47;;;31.90;63.20;;;;;;5055745;28;20063;-65
2022/07/19 10:05:15;;;;;;;3.90;2.30;;;32.00;62.40;;;;;;5051433;28;20045;-64
2022/07/19 10:07:43;;;;;;;4.57;2.10;;;31.90;62.40;;;;;;5051495;28;20127;-66
2022/07/19 10:10:12;;;;;;;4.70;2.10;;;32.10;62.30;;;;;;5059715;28;20055;-69
2022/07/19 10:12:41;;;;;;;3.47;1.88;;;32.20;62.30;;;;;;5059481;28;20055;-65
2022/07/19 10:15:11;;;;;;;5.50;2.17;;;32.30;61.40;;;;;;5051513;28;20052;-66
2022/07/19 10:17:47;;;;;;;4.20;2.40;;;32.30;61.40;;;;;;5051743;28;20045;-65
2022/07/19 10:20:21;;;;;;;4.38;2.00;;;32.30;60.90;;;;;;5049704;28;20498;-67
2022/07/19 10:22:50;;;;;;;5.38;1.88;;;32.50;60.90;;;;;;5057371;28;20047;-65
2022/07/19 10:25:17;;;;;;;7.95;2.25;;;32.60;59.90;;;;;;5063967;28;20045;-69
2022/07/19 10:27:48;;;;;;;3.72;2.20;;;32.70;59.20;;;;;;5061892;28;20109;-64
2022/07/19 10:30:23;;;;;;;5.70;1.95;;;32.60;59.10;;;;;;5067270;28;20056;-65
2022/07/19 10:32:53;;;;;;;4.80;2.22;;;32.40;59.10;;;;;;5051541;28;20562;-65
2022/07/19 10:35:29;;;;;;;6.15;1.95;;;32.60;59.20;;;;;;5067790;28;20511;-66
2022/07/19 10:38:03;;;;;;;3.90;1.90;;;33.00;59.00;;;;;;5066853;28;20064;-65
2022/07/19 10:40:40;;;;;;;3.03;1.70;;;33.30;58.50;;;;;;5068555;28;20068;-65
2022/07/19 10:43:18;;;;;;;4.53;2.00;;;33.40;57.70;;;;;;5049013;28;20071;-66
2022/07/19 10:46:01;;;;;;;7.18;2.10;;;33.70;57.40;;;;;;5059207;28;20049;-66
2022/07/19 10:48:48;;;;;;;7.25;2.10;;;33.90;56.80;;;;;;5058137;28;20048;-65
2022/07/19 10:51:30;;;;;;;8.23;1.73;;;34.10;56.20;;;;;;5052638;28;20487;-68
2022/07/19 10:54:06;;;;;;;3.70;2.10;;;34.40;56.10;;;;;;5050226;28;20041;-65
2022/07/19 10:56:42;;;;;;;4.40;2.10;;;34.60;55.70;;;;;;5054419;28;20048;-66
2022/07/19 10:59:36;;;;;;;6.85;2.40;;;34.70;55.50;;;;;;5057275;28;20072;-65
2022/07/19 11:02:05;;;;;;;4.97;1.77;;;34.90;55.00;;;;;;5058827;28;20498;-66
2022/07/19 11:04:52;;;;;;;4.03;2.00;;;34.80;55.10;;;;;;5053862;28;20336;-66
2022/07/19 11:07:22;;;;;;;6.20;2.28;;;35.00;55.10;;;;;;5053422;28;20055;-67
2022/07/19 11:09:56;;;;;;;3.33;1.73;;;35.10;54.40;;;;;;5050610;28;20064;-66
2022/07/19 11:12:33;;;;;;;3.67;1.85;;;35.00;53.80;;;;;;5060557;28;20070;-65
2022/07/19 11:15:04;;;;;;;5.57;2.25;;;34.90;53.90;;;;;;5063091;28;20044;-67
2022/07/19 11:18:12;;;;;;;5.13;2.00;;;35.10;54.00;;;;;;5066545;28;20050;-66
2022/07/19 11:20:40;;;;;;;3.90;1.90;;;35.70;53.50;;;;;;5058406;28;20589;-66
2022/07/19 11:23:08;;;;;;;5.13;2.25;;;35.90;53.00;;;;;;5055589;28;20779;-67
2022/07/19 11:25:39;;;;;;;8.13;2.70;;;36.10;53.00;;;;;;5065763;28;20449;-67
2022/07/19 11:28:06;;;;;;;6.78;2.25;;;36.30;52.90;;;;;;5067769;28;20503;-66
2022/07/19 11:30:35;;;;;;;5.03;2.25;;;36.50;52.30;;;;;;5055283;28;20148;-66
2022/07/19 11:33:05;;;;;;;4.00;2.30;;;36.80;52.00;;;;;;5055776;28;20054;-67
2022/07/19 11:35:39;;;;;;;3.90;2.30;;;36.80;51.80;;;;;;5057003;28;20071;-67
2022/07/19 11:38:06;;;;;;;7.65;2.40;;;37.00;50.70;;;;;;5056387;28;20045;-67
2022/07/19 11:40:36;;;;;;;6.78;2.30;;;37.10;50.10;;;;;;5066289;28;20592;-66
2022/07/19 11:43:07;;;;;;;4.07;2.10;;;36.70;49.90;;;;;;5052588;28;20384;-67
2022/07/19 11:45:48;;;;;;;5.45;2.33;;;36.60;49.80;;;;;;5068054;28;20045;-66
2022/07/19 11:48:28;;;;;;;4.78;2.30;;;37.00;50.20;;;;;;5062681;28;20123;-67
2022/07/19 11:51:08;;;;;;;4.80;2.30;;;37.60;50.10;;;;;;5070593;28;20057;-67
2022/07/19 11:53:38;;;;;;;6.00;2.97;;;38.00;49.90;;;;;;5070608;28;20506;-66
2022/07/19 11:56:16;;;;;;;5.63;2.75;;;38.30;49.10;;;;;;5065509;28;20064;-67
2022/07/19 11:58:44;;;;;;;9.73;2.50;;;38.50;48.60;;;;;;5070281;28;20071;-69
2022/07/19 12:01:12;;;;;;;7.72;2.70;;;38.80;48.10;;;;;;5057275;28;20516;-66
2022/07/19 12:03:40;;;;;;;7.05;2.83;;;38.70;48.00;;;;;;5069304;28;20048;-68
2022/07/19 12:06:08;;;;;;;5.20;2.22;;;39.10;48.00;;;;;;5063446;28;20045;-67
2022/07/19 12:08:44;;;;;;;6.30;2.53;;;39.20;47.30;;;;;;5069408;28;20033;-66
2022/07/19 12:11:38;;;;;;;5.93;2.67;;;39.40;46.90;;;;;;5066247;28;20049;-66
2022/07/19 12:14:32;;;;;;;6.72;2.88;;;40.00;47.00;;;;;;5049200;28;20041;-66
2022/07/19 12:17:17;;;;;;;5.43;2.45;;;40.50;46.30;;;;;;5052616;28;20053;-66
2022/07/19 12:20:09;;;;;;;3.58;2.13;;;40.50;45.90;;;;;;5045680;28;20167;-66
2022/07/19 12:23:14;;;;;;;5.47;2.00;;;40.90;45.50;;;;;;5060559;28;20046;-67
2022/07/19 12:25:41;;;;;;;6.93;2.67;;;41.50;44.80;;;;;;5069894;28;20487;-66
2022/07/19 12:28:09;;;;;;;6.13;2.80;;;41.70;44.20;;;;;;5057833;28;20102;-65
2022/07/19 12:30:37;;;;;;;8.00;2.70;;;41.40;44.10;;;;;;5067344;28;21725;-65
2022/07/19 12:33:13;;;;;;;4.72;2.40;;;41.30;44.30;;;;;;5069972;28;20437;-67
2022/07/19 12:35:46;;;;;;;6.38;2.95;;;41.70;44.40;;;;;;5070167;28;20052;-66
2022/07/19 12:38:14;;;;;;;7.18;2.63;;;41.70;44.00;;;;;;5062871;28;20095;-66
2022/07/19 12:40:43;;;;;;;5.60;2.78;;;42.10;44.00;;;;;;5070705;28;20055;-66
2022/07/19 12:43:14;;;;;;;6.30;2.45;;;42.50;43.40;;;;;;5070091;28;20530;-67
2022/07/19 12:45:44;;;;;;;6.63;2.50;;;42.70;43.10;;;;;;5062087;28;20554;-67
2022/07/19 12:48:13;;;;;;;4.65;2.47;;;42.60;42.70;;;;;;5065865;28;20040;-67
2022/07/19 12:50:45;;;;;;;5.85;2.53;;;42.60;42.80;;;;;;5065062;28;20044;-67
2022/07/19 12:53:14;;;;;;;6.15;2.67;;;42.60;42.60;;;;;;5064179;28;20083;-67
2022/07/19 12:55:44;;;;;;;5.00;2.80;;;43.20;42.20;;;;;;5058221;28;20575;-66
2022/07/19 12:58:14;;;;;;;6.38;2.85;;;43.10;41.90;;;;;;5069091;28;20051;-67
2022/07/19 13:00:42;;;;;;;4.20;2.33;;;43.10;41.60;;;;;;5068313;28;20463;-65
2022/07/19 13:03:10;;;;;;;4.80;2.78;;;43.30;41.60;;;;;;5060783;28;20562;-67
2022/07/19 13:05:37;;;;;;;7.03;2.63;;;43.20;41.30;;;;;;5060385;28;20049;-68
2022/07/19 13:08:05;;;;;;;5.72;2.88;;;43.30;41.30;;;;;;5065979;28;20054;-66